createdAt,value
2019-03-11T00:01:10.931Z,22.02
2019-03-11T00:03:41.281Z,27.85
2019-03-11T00:06:11.666Z,20.97
2019-03-11T00:08:42.019Z,20.60
2019-03-11T00:11:12.395Z,17.27
2019-03-11T00:13:42.763Z,18.35
2019-03-11T00:16:13.151Z,27.22
2019-03-11T00:18:43.522Z,14.98
2019-03-11T00:21:13.893Z,20.02
2019-03-11T00:23:44.254Z,21.23
2019-03-11T00:26:14.635Z,26.50
2019-03-11T00:28:45.011Z,16.27
2019-03-11T00:31:15.373Z,21.93
2019-03-11T00:33:45.757Z,22.20
2019-03-11T00:36:16.106Z,19.42
2019-03-11T00:38:46.488Z,17.95
2019-03-11T00:41:16.854Z,17.95
2019-03-11T00:43:47.238Z,20.17
2019-03-11T00:46:17.594Z,19.17
2019-03-11T00:48:48.043Z,18.25
2019-03-11T00:51:18.408Z,20.15
2019-03-11T00:53:48.798Z,17.73
2019-03-11T00:56:19.200Z,20.52
2019-03-11T00:58:49.541Z,20.25
2019-03-11T01:01:20.070Z,18.05
2019-03-11T01:03:50.446Z,19.45
2019-03-11T01:06:20.810Z,19.45
2019-03-11T01:08:51.200Z,21.73
2019-03-11T01:11:21.561Z,17.73
2019-03-11T01:13:51.934Z,21.17
2019-03-11T01:16:22.299Z,19.87
2019-03-11T01:18:52.682Z,23.30
2019-03-11T01:21:23.218Z,18.95
2019-03-11T01:23:53.596Z,24.07
2019-03-11T01:26:23.956Z,23.75
2019-03-11T01:28:54.339Z,19.48
2019-03-11T01:31:24.702Z,20.77
2019-03-11T01:33:55.088Z,23.35
2019-03-11T01:36:25.448Z,24.50
2019-03-11T01:38:55.834Z,20.32
2019-03-11T01:41:26.198Z,23.85
2019-03-11T01:43:56.585Z,18.98
2019-03-11T01:46:26.946Z,18.23
2019-03-11T01:48:57.330Z,20.05
2019-03-11T01:51:27.752Z,16.77
2019-03-11T01:53:58.080Z,17.98
2019-03-11T01:56:28.443Z,15.85
2019-03-11T01:58:58.814Z,17.10
2019-03-11T02:01:29.169Z,15.75
2019-03-11T02:03:59.549Z,12.35
2019-03-11T02:06:29.906Z,13.28
2019-03-11T02:09:00.277Z,12.20
2019-03-11T02:11:30.811Z,10.03
2019-03-11T02:14:01.195Z,10.85
2019-03-11T02:16:31.537Z,9.40
2019-03-11T02:19:01.993Z,8.33
2019-03-11T02:21:32.347Z,8.38
2019-03-11T02:24:02.721Z,13.10
2019-03-11T02:26:33.073Z,12.00
2019-03-11T02:29:03.458Z,10.63
2019-03-11T02:31:33.829Z,13.70
2019-03-11T02:34:04.194Z,10.75
2019-03-11T02:36:35.624Z,12.47
2019-03-11T02:39:17.754Z,13.00
2019-03-11T02:41:48.112Z,11.45
2019-03-11T02:44:18.496Z,13.48
2019-03-11T02:46:48.851Z,13.38
2019-03-11T02:49:19.229Z,12.25
2019-03-11T02:51:49.586Z,13.20
2019-03-11T02:54:19.983Z,11.00
2019-03-11T02:56:50.348Z,15.43
2019-03-11T02:59:20.717Z,13.28
2019-03-11T03:02:01.821Z,9.65
2019-03-11T03:04:34.923Z,12.25
2019-03-11T03:07:05.501Z,11.35
2019-03-11T03:09:35.885Z,10.68
2019-03-11T03:12:06.245Z,13.38
2019-03-11T03:14:37.599Z,13.32
2019-03-11T03:17:07.941Z,11.63
2019-03-11T03:19:38.316Z,11.18
2019-03-11T03:22:08.734Z,8.83
2019-03-11T03:24:39.467Z,8.30
2019-03-11T03:27:09.818Z,9.03
2019-03-11T03:29:59.528Z,12.43
2019-03-11T03:32:29.989Z,8.95
2019-03-11T03:35:00.783Z,9.25
2019-03-11T03:37:31.367Z,10.20
2019-03-11T03:40:01.795Z,9.63
2019-03-11T03:42:32.151Z,9.20
2019-03-11T03:45:27.781Z,10.13
2019-03-11T03:48:00.180Z,10.30
2019-03-11T03:50:37.015Z,10.13
2019-03-11T03:53:08.361Z,12.75
2019-03-11T03:55:38.766Z,10.32
2019-03-11T03:58:09.122Z,10.95
2019-03-11T04:00:39.506Z,15.13
2019-03-11T04:03:09.854Z,14.23
2019-03-11T04:05:40.236Z,12.20
2019-03-11T04:08:10.674Z,14.20
2019-03-11T04:10:41.052Z,14.63
2019-03-11T04:13:12.383Z,17.32
2019-03-11T04:15:42.753Z,15.05
2019-03-11T04:18:13.446Z,16.55
2019-03-11T04:20:43.835Z,19.73
2019-03-11T04:23:14.195Z,19.37
2019-03-11T04:25:44.575Z,12.30
2019-03-11T04:28:14.927Z,13.68
2019-03-11T04:30:45.294Z,15.20
2019-03-11T04:33:15.652Z,13.90
2019-03-11T04:35:46.039Z,17.42
2019-03-11T04:38:16.389Z,17.40
2019-03-11T04:40:46.774Z,19.67
2019-03-11T04:43:18.205Z,15.98
2019-03-11T04:45:48.582Z,19.73
2019-03-11T04:48:18.939Z,14.68
2019-03-11T04:50:49.313Z,15.90
2019-03-11T04:53:19.661Z,19.10
2019-03-11T04:55:50.110Z,13.98
2019-03-11T04:58:20.468Z,16.20
2019-03-11T05:00:51.816Z,16.75
2019-03-11T05:03:22.180Z,14.03
2019-03-11T05:05:52.550Z,15.35
2019-03-11T05:08:22.904Z,17.05
2019-03-11T05:10:53.285Z,12.28
2019-03-11T05:13:23.633Z,15.38
2019-03-11T05:15:54.009Z,10.00
2019-03-11T05:18:24.368Z,13.90
2019-03-11T05:20:55.024Z,16.27
2019-03-11T05:23:26.346Z,17.57
2019-03-11T05:25:56.733Z,17.23
2019-03-11T05:28:27.081Z,10.70
2019-03-11T05:30:57.457Z,19.98
2019-03-11T05:33:27.813Z,13.10
2019-03-11T05:35:58.196Z,13.68
2019-03-11T05:38:28.558Z,14.73
2019-03-11T05:40:58.936Z,13.22
2019-03-11T05:43:29.286Z,10.40
2019-03-11T05:45:59.665Z,16.42
2019-03-11T05:48:30.024Z,13.93
2019-03-11T05:51:00.425Z,13.38
2019-03-11T05:53:30.790Z,19.73
2019-03-11T05:56:01.169Z,19.30
2019-03-11T05:58:31.518Z,21.17
2019-03-11T06:01:01.901Z,18.42
2019-03-11T06:03:32.255Z,16.30
2019-03-11T06:06:02.638Z,12.75
2019-03-11T06:08:33.465Z,15.68
2019-03-11T06:11:03.982Z,17.60
2019-03-11T06:13:36.173Z,16.45
2019-03-11T06:16:06.388Z,17.80
2019-03-11T06:18:44.821Z,17.75
2019-03-11T06:21:16.908Z,24.47
2019-03-11T06:23:47.273Z,18.52
2019-03-11T06:26:36.992Z,16.45
2019-03-11T06:29:07.341Z,16.02
2019-03-11T06:31:37.721Z,20.48
2019-03-11T06:34:08.086Z,14.75
2019-03-11T06:36:38.469Z,15.20
2019-03-11T06:39:09.010Z,13.25
2019-03-11T06:41:39.380Z,16.17
2019-03-11T06:44:09.745Z,13.30
2019-03-11T06:46:40.125Z,19.55
2019-03-11T06:49:10.486Z,22.70
2019-03-11T06:51:40.864Z,12.03
2019-03-11T06:54:11.273Z,13.88
2019-03-11T06:56:41.653Z,19.67
2019-03-11T06:59:12.013Z,15.85
2019-03-11T07:01:43.360Z,10.00
2019-03-11T07:04:13.710Z,13.20
2019-03-11T07:06:44.081Z,12.40
2019-03-11T07:09:14.926Z,15.15
2019-03-11T07:11:45.342Z,11.08
2019-03-11T07:14:15.698Z,12.33
2019-03-11T07:16:46.078Z,14.00
2019-03-11T07:19:16.436Z,8.85
2019-03-11T07:21:46.816Z,11.40
2019-03-11T07:24:17.180Z,12.43
2019-03-11T07:26:47.652Z,12.05
2019-03-11T07:29:18.016Z,9.78
2019-03-11T07:31:48.501Z,10.10
2019-03-11T07:34:18.859Z,12.13
2019-03-11T07:36:49.232Z,7.80
2019-03-11T07:39:19.593Z,9.80
2019-03-11T07:41:49.961Z,5.80
2019-03-11T07:44:20.314Z,30.00
2019-03-11T07:46:50.694Z,7.12
2019-03-11T07:49:21.052Z,10.60
2019-03-11T07:51:51.425Z,12.00
2019-03-11T07:54:21.777Z,9.50
2019-03-11T07:56:52.157Z,14.85
2019-03-11T07:59:22.516Z,10.50
2019-03-11T08:01:52.888Z,12.82
2019-03-11T08:04:23.247Z,10.00
2019-03-11T08:06:53.623Z,13.53
2019-03-11T08:09:23.976Z,10.05
2019-03-11T08:11:54.388Z,12.25
2019-03-11T08:14:25.571Z,10.45
2019-03-11T08:16:55.971Z,9.40
2019-03-11T08:19:26.329Z,12.60
2019-03-11T08:21:56.704Z,11.43
2019-03-11T08:24:27.070Z,12.60
2019-03-11T08:26:57.439Z,11.20
2019-03-11T08:29:28.769Z,9.65
2019-03-11T08:31:59.149Z,10.98
2019-03-11T08:34:29.496Z,14.98
2019-03-11T08:36:59.872Z,10.32
2019-03-11T08:39:30.228Z,12.70
2019-03-11T08:42:00.603Z,9.43
2019-03-11T08:44:30.952Z,10.65
2019-03-11T09:26:40.040Z,43.00
2019-03-11T09:29:10.395Z,10.58
2019-03-11T09:31:40.765Z,7.83
2019-03-11T09:34:11.118Z,8.88
2019-03-11T09:36:41.497Z,11.78
2019-03-11T09:39:12.024Z,10.55
2019-03-11T09:41:42.508Z,8.30
2019-03-11T09:44:12.862Z,16.48
2019-03-11T09:46:43.239Z,9.98
2019-03-11T09:49:13.600Z,9.55
2019-03-11T09:51:43.971Z,11.45
2019-03-11T09:54:14.326Z,12.98
2019-03-11T09:56:44.697Z,11.00
2019-03-11T09:59:15.052Z,8.00
2019-03-11T10:01:45.441Z,11.55
2019-03-11T10:04:15.800Z,5.37
2019-03-11T10:06:46.177Z,8.98
2019-03-11T10:09:16.530Z,7.55
2019-03-11T10:11:47.014Z,8.83
2019-03-11T10:14:17.362Z,12.55
2019-03-11T10:16:47.748Z,9.18
2019-03-11T10:19:18.112Z,10.55
2019-03-11T10:21:49.559Z,8.43
2019-03-11T10:24:21.080Z,7.25
2019-03-11T10:26:51.445Z,12.15
2019-03-11T10:29:21.800Z,6.65
2019-03-11T10:31:52.172Z,9.33
2019-03-11T10:34:22.524Z,6.03
2019-03-11T10:36:52.897Z,10.00
2019-03-11T10:39:23.245Z,13.28
2019-03-11T10:41:53.623Z,8.40
2019-03-11T10:44:23.979Z,8.03
2019-03-11T10:46:54.349Z,12.47
2019-03-11T10:49:25.774Z,7.53
2019-03-11T10:51:56.135Z,8.55
2019-03-11T10:54:26.494Z,6.72
2019-03-11T10:56:57.445Z,7.85
2019-03-11T10:59:27.805Z,8.85
2019-03-11T11:01:58.618Z,7.25
2019-03-11T11:04:28.972Z,6.75
2019-03-11T11:06:59.351Z,9.80
2019-03-11T11:09:29.707Z,16.42
2019-03-11T11:12:00.089Z,9.93
2019-03-11T11:14:30.444Z,9.43
2019-03-11T11:17:00.899Z,9.78
2019-03-11T11:19:31.261Z,7.40
2019-03-11T11:22:01.668Z,9.88
2019-03-11T11:24:32.041Z,11.18
2019-03-11T11:27:03.860Z,9.88
2019-03-11T11:29:34.232Z,9.53
2019-03-11T11:32:04.762Z,12.78
2019-03-11T11:34:35.139Z,12.15
2019-03-11T11:37:05.483Z,9.25
2019-03-11T11:39:35.876Z,9.70
2019-03-11T11:42:06.232Z,12.20
2019-03-11T11:44:36.606Z,8.78
2019-03-11T11:47:07.028Z,10.00
2019-03-11T11:49:37.412Z,8.38
2019-03-11T11:52:07.765Z,8.60
2019-03-11T11:54:38.140Z,9.10
2019-03-11T11:57:09.458Z,10.25
2019-03-11T11:59:53.564Z,8.75
2019-03-11T12:02:37.194Z,12.18
2019-03-11T12:05:23.285Z,12.95
2019-03-11T13:13:57.319Z,5.55
2019-03-11T13:16:40.662Z,6.65
2019-03-11T13:19:17.126Z,6.87
2019-03-11T14:06:34.540Z,5.20
2019-03-11T15:25:23.004Z,4.05
2019-03-11T15:48:22.953Z,14.33
2019-03-11T15:50:59.075Z,7.08
2019-03-11T16:36:37.680Z,4.17
2019-03-11T17:41:40.392Z,6.62
2019-03-11T18:23:41.971Z,5.60
2019-03-11T18:32:23.330Z,3.05
2019-03-11T19:10:40.861Z,4.40
2019-03-11T19:13:11.495Z,5.05
2019-03-11T19:15:42.547Z,6.30
2019-03-11T19:18:13.836Z,3.80
2019-03-11T19:20:45.455Z,5.50
2019-03-11T19:23:21.500Z,6.85
2019-03-11T19:25:52.883Z,5.15
2019-03-11T19:28:24.627Z,5.65
2019-03-11T19:30:58.412Z,5.40
2019-03-11T19:33:34.176Z,4.87
2019-03-11T19:36:17.693Z,4.25
2019-03-11T19:39:00.799Z,4.42
2019-03-11T19:44:47.300Z,4.42
2019-03-11T19:47:21.282Z,4.08
2019-03-11T19:50:09.894Z,4.62
2019-03-11T20:03:46.555Z,5.08
2019-03-11T20:09:19.836Z,5.40
2019-03-11T20:22:53.046Z,5.20
2019-03-11T20:25:34.582Z,6.35
2019-03-11T20:58:19.024Z,11.15
2019-03-11T21:00:49.449Z,9.28
2019-03-11T21:03:19.918Z,8.80
2019-03-11T21:05:57.717Z,8.78
2019-03-11T21:08:28.174Z,7.60
2019-03-11T21:10:58.581Z,8.48
2019-03-11T21:13:29.224Z,9.48
2019-03-11T21:15:59.550Z,9.58
2019-03-11T21:18:30.017Z,11.03
2019-03-11T21:21:05.094Z,11.12
2019-03-11T21:23:33.065Z,9.73
2019-03-11T21:26:03.571Z,12.28
2019-03-11T21:28:34.240Z,13.18
2019-03-11T21:31:04.830Z,13.38
2019-03-11T21:33:35.268Z,12.60
2019-03-11T21:36:05.727Z,11.48
2019-03-11T21:38:36.338Z,14.90
2019-03-11T21:41:06.827Z,13.30
2019-03-11T21:43:37.420Z,13.00
2019-03-11T21:46:08.841Z,12.33
2019-03-11T21:48:39.317Z,11.80
2019-03-11T21:51:09.657Z,12.18
2019-03-11T21:53:40.150Z,12.95
2019-03-11T21:56:10.670Z,11.75
2019-03-11T21:58:41.173Z,12.25
2019-03-11T22:01:13.803Z,11.43
2019-03-11T22:03:44.363Z,12.33
2019-03-11T22:06:14.754Z,10.32
2019-03-11T22:08:45.277Z,13.22
2019-03-11T22:11:15.651Z,13.25
2019-03-11T22:13:46.150Z,12.45
2019-03-11T22:16:16.604Z,14.87
2019-03-11T22:18:48.005Z,15.28
2019-03-11T22:21:18.533Z,13.93
2019-03-11T22:23:49.041Z,13.20
2019-03-11T22:26:19.462Z,11.35
2019-03-11T22:28:49.837Z,10.80
2019-03-11T22:31:20.197Z,10.58
2019-03-11T22:33:50.610Z,11.60
2019-03-11T22:36:21.089Z,13.20
2019-03-11T22:38:51.439Z,11.83
2019-03-11T22:41:21.807Z,12.47
2019-03-11T22:43:52.180Z,13.88
2019-03-11T22:46:22.537Z,14.65
2019-03-11T22:48:52.955Z,14.70
2019-03-11T22:51:23.302Z,15.10
2019-03-11T22:53:53.676Z,18.95
2019-03-11T22:56:24.038Z,21.17
2019-03-11T22:58:54.416Z,19.52
2019-03-11T23:01:24.941Z,19.27
2019-03-11T23:03:56.498Z,19.52
2019-03-11T23:06:26.856Z,17.17
2019-03-11T23:08:57.238Z,19.75
2019-03-11T23:11:27.615Z,23.20
2019-03-11T23:13:57.998Z,18.85
2019-03-11T23:16:28.363Z,22.37
2019-03-11T23:18:58.738Z,20.05
2019-03-11T23:21:29.093Z,24.07
2019-03-11T23:23:59.462Z,20.05
2019-03-11T23:26:30.094Z,25.68
2019-03-11T23:29:00.480Z,29.25
2019-03-11T23:31:30.852Z,31.90
2019-03-11T23:34:01.217Z,36.13
2019-03-11T23:36:31.587Z,34.05
2019-03-11T23:39:01.975Z,30.52
2019-03-11T23:41:33.938Z,31.45
2019-03-11T23:44:04.326Z,27.00
2019-03-11T23:46:34.698Z,28.05
2019-03-11T23:49:05.079Z,27.77
2019-03-11T23:51:35.438Z,23.80
2019-03-11T23:54:05.816Z,27.22
2019-03-11T23:56:36.193Z,25.90
2019-03-11T23:59:06.566Z,26.40
